sensor_id;sensor_type;location;lat;lon;timestamp;P1;durP1;ratioP1;P2;durP2;ratioP2
51594;SDS011;37677;53.254;6.594;2022-11-15T00:01:41;28.40;;;23.13;;
51594;SDS011;37677;53.254;6.594;2022-11-15T00:04:06;26.92;;;23.65;;
51594;SDS011;37677;53.254;6.594;2022-11-15T00:06:32;29.35;;;24.35;;
51594;SDS011;37677;53.254;6.594;2022-11-15T00:08:58;29.52;;;24.40;;
51594;SDS011;37677;53.254;6.594;2022-11-15T00:11:24;26.52;;;22.77;;
51594;SDS011;37677;53.254;6.594;2022-11-15T00:13:50;31.15;;;23.52;;
51594;SDS011;37677;53.254;6.594;2022-11-15T00:16:16;28.40;;;24.10;;
51594;SDS011;37677;53.254;6.594;2022-11-15T00:18:42;30.40;;;24.30;;
51594;SDS011;37677;53.254;6.594;2022-11-15T00:21:09;29.45;;;24.02;;
51594;SDS011;37677;53.254;6.594;2022-11-15T00:23:36;29.10;;;24.20;;
51594;SDS011;37677;53.254;6.594;2022-11-15T00:26:02;30.30;;;23.48;;
51594;SDS011;37677;53.254;6.594;2022-11-15T00:28:28;29.85;;;24.83;;
51594;SDS011;37677;53.254;6.594;2022-11-15T00:30:59;26.85;;;23.83;;
51594;SDS011;37677;53.254;6.594;2022-11-15T00:33:26;30.52;;;24.92;;
51594;SDS011;37677;53.254;6.594;2022-11-15T00:35:51;29.38;;;23.80;;
51594;SDS011;37677;53.254;6.594;2022-11-15T00:38:17;31.42;;;25.80;;
51594;SDS011;37677;53.254;6.594;2022-11-15T00:40:43;31.25;;;25.20;;
51594;SDS011;37677;53.254;6.594;2022-11-15T00:43:08;31.00;;;24.25;;
51594;SDS011;37677;53.254;6.594;2022-11-15T00:45:34;28.98;;;24.35;;
51594;SDS011;37677;53.254;6.594;2022-11-15T00:48:00;32.70;;;25.33;;
51594;SDS011;37677;53.254;6.594;2022-11-15T00:50:25;29.73;;;24.30;;
51594;SDS011;37677;53.254;6.594;2022-11-15T00:52:51;30.60;;;25.50;;
51594;SDS011;37677;53.254;6.594;2022-11-15T00:55:17;28.27;;;24.20;;
51594;SDS011;37677;53.254;6.594;2022-11-15T00:57:43;28.38;;;23.88;;
51594;SDS011;37677;53.254;6.594;2022-11-15T01:00:09;30.35;;;25.92;;
51594;SDS011;37677;53.254;6.594;2022-11-15T01:02:35;29.80;;;25.73;;
51594;SDS011;37677;53.254;6.594;2022-11-15T01:05:01;31.83;;;24.40;;
51594;SDS011;37677;53.254;6.594;2022-11-15T01:07:27;27.58;;;24.30;;
51594;SDS011;37677;53.254;6.594;2022-11-15T01:09:53;30.65;;;24.00;;
51594;SDS011;37677;53.254;6.594;2022-11-15T01:12:18;26.85;;;23.73;;
51594;SDS011;37677;53.254;6.594;2022-11-15T01:14:44;28.85;;;24.33;;
51594;SDS011;37677;53.254;6.594;2022-11-15T02:45:40;26.48;;;21.67;;
51594;SDS011;37677;53.254;6.594;2022-11-15T02:48:12;29.90;;;22.92;;
51594;SDS011;37677;53.254;6.594;2022-11-15T02:50:40;29.27;;;23.27;;
51594;SDS011;37677;53.254;6.594;2022-11-15T02:53:07;30.65;;;23.10;;
51594;SDS011;37677;53.254;6.594;2022-11-15T02:55:35;31.05;;;23.70;;
51594;SDS011;37677;53.254;6.594;2022-11-15T02:58:35;35.25;;;25.30;;
51594;SDS011;37677;53.254;6.594;2022-11-15T03:06:22;33.72;;;25.25;;
51594;SDS011;37677;53.254;6.594;2022-11-15T03:09:04;34.83;;;25.35;;
51594;SDS011;37677;53.254;6.594;2022-11-15T03:11:37;39.47;;;25.77;;
51594;SDS011;37677;53.254;6.594;2022-11-15T03:17:00;38.90;;;26.80;;
51594;SDS011;37677;53.254;6.594;2022-11-15T03:19:40;37.97;;;27.15;;
51594;SDS011;37677;53.254;6.594;2022-11-15T03:22:22;39.75;;;27.10;;
51594;SDS011;37677;53.254;6.594;2022-11-15T03:24:53;36.55;;;26.63;;
51594;SDS011;37677;53.254;6.594;2022-11-15T03:27:22;38.20;;;25.75;;
51594;SDS011;37677;53.254;6.594;2022-11-15T03:29:52;37.08;;;26.05;;
51594;SDS011;37677;53.254;6.594;2022-11-15T03:32:46;42.20;;;27.45;;
51594;SDS011;37677;53.254;6.594;2022-11-15T03:35:14;36.50;;;25.83;;
51594;SDS011;37677;53.254;6.594;2022-11-15T03:40:19;37.13;;;25.95;;
51594;SDS011;37677;53.254;6.594;2022-11-15T03:43:10;37.10;;;26.85;;
51594;SDS011;37677;53.254;6.594;2022-11-15T03:45:50;45.25;;;26.52;;
51594;SDS011;37677;53.254;6.594;2022-11-15T03:48:37;41.90;;;27.48;;
51594;SDS011;37677;53.254;6.594;2022-11-15T03:51:08;38.38;;;25.35;;
51594;SDS011;37677;53.254;6.594;2022-11-15T03:53:35;42.28;;;27.27;;
51594;SDS011;37677;53.254;6.594;2022-11-15T03:56:00;37.55;;;25.90;;
51594;SDS011;37677;53.254;6.594;2022-11-15T03:58:26;39.88;;;26.58;;
51594;SDS011;37677;53.254;6.594;2022-11-15T04:00:52;39.42;;;26.98;;
51594;SDS011;37677;53.254;6.594;2022-11-15T04:03:17;40.10;;;27.00;;
51594;SDS011;37677;53.254;6.594;2022-11-15T04:05:43;39.53;;;26.38;;
51594;SDS011;37677;53.254;6.594;2022-11-15T04:08:09;38.15;;;25.38;;
51594;SDS011;37677;53.254;6.594;2022-11-15T04:10:34;39.08;;;25.10;;
51594;SDS011;37677;53.254;6.594;2022-11-15T04:13:01;36.33;;;25.58;;
51594;SDS011;37677;53.254;6.594;2022-11-15T04:15:27;42.50;;;26.15;;
51594;SDS011;37677;53.254;6.594;2022-11-15T04:17:55;37.83;;;25.50;;
51594;SDS011;37677;53.254;6.594;2022-11-15T04:20:22;37.55;;;24.88;;
51594;SDS011;37677;53.254;6.594;2022-11-15T04:23:11;39.80;;;25.70;;
51594;SDS011;37677;53.254;6.594;2022-11-15T04:25:58;40.88;;;25.88;;
51594;SDS011;37677;53.254;6.594;2022-11-15T04:28:26;39.53;;;26.58;;
51594;SDS011;37677;53.254;6.594;2022-11-15T04:30:52;41.13;;;25.98;;
51594;SDS011;37677;53.254;6.594;2022-11-15T04:33:17;41.00;;;26.65;;
51594;SDS011;37677;53.254;6.594;2022-11-15T04:35:43;38.83;;;26.50;;
51594;SDS011;37677;53.254;6.594;2022-11-15T04:38:29;44.43;;;27.10;;
51594;SDS011;37677;53.254;6.594;2022-11-15T04:40:55;45.78;;;27.65;;
51594;SDS011;37677;53.254;6.594;2022-11-15T04:43:21;42.00;;;27.30;;
51594;SDS011;37677;53.254;6.594;2022-11-15T04:45:48;43.05;;;28.48;;
51594;SDS011;37677;53.254;6.594;2022-11-15T04:48:13;45.65;;;27.25;;
51594;SDS011;37677;53.254;6.594;2022-11-15T04:50:39;48.08;;;28.38;;
51594;SDS011;37677;53.254;6.594;2022-11-15T04:53:04;48.03;;;28.17;;
51594;SDS011;37677;53.254;6.594;2022-11-15T04:55:31;48.33;;;28.52;;
51594;SDS011;37677;53.254;6.594;2022-11-15T04:57:57;47.58;;;29.17;;
51594;SDS011;37677;53.254;6.594;2022-11-15T05:00:24;56.47;;;28.90;;
51594;SDS011;37677;53.254;6.594;2022-11-15T05:02:50;52.72;;;29.92;;
51594;SDS011;37677;53.254;6.594;2022-11-15T05:05:35;50.47;;;29.50;;
51594;SDS011;37677;53.254;6.594;2022-11-15T05:08:00;57.17;;;30.33;;
51594;SDS011;37677;53.254;6.594;2022-11-15T05:10:26;56.60;;;31.88;;
51594;SDS011;37677;53.254;6.594;2022-11-15T05:12:52;58.10;;;30.77;;
51594;SDS011;37677;53.254;6.594;2022-11-15T05:15:17;56.10;;;32.60;;
51594;SDS011;37677;53.254;6.594;2022-11-15T05:17:43;65.25;;;33.13;;
51594;SDS011;37677;53.254;6.594;2022-11-15T05:20:09;52.33;;;32.72;;
51594;SDS011;37677;53.254;6.594;2022-11-15T05:22:35;63.53;;;33.45;;
51594;SDS011;37677;53.254;6.594;2022-11-15T05:25:01;64.82;;;34.15;;
51594;SDS011;37677;53.254;6.594;2022-11-15T05:27:26;61.53;;;34.92;;
51594;SDS011;37677;53.254;6.594;2022-11-15T05:29:52;61.85;;;34.22;;
51594;SDS011;37677;53.254;6.594;2022-11-15T05:32:18;70.32;;;36.33;;
51594;SDS011;37677;53.254;6.594;2022-11-15T05:34:43;67.07;;;36.75;;
51594;SDS011;37677;53.254;6.594;2022-11-15T05:37:10;68.97;;;36.22;;
51594;SDS011;37677;53.254;6.594;2022-11-15T05:39:35;68.95;;;37.80;;
51594;SDS011;37677;53.254;6.594;2022-11-15T05:42:11;73.32;;;37.92;;
51594;SDS011;37677;53.254;6.594;2022-11-15T05:44:39;73.43;;;37.50;;
51594;SDS011;37677;53.254;6.594;2022-11-15T05:47:08;80.47;;;38.47;;
51594;SDS011;37677;53.254;6.594;2022-11-15T05:49:36;86.63;;;40.55;;
51594;SDS011;37677;53.254;6.594;2022-11-15T05:52:05;83.38;;;39.47;;
51594;SDS011;37677;53.254;6.594;2022-11-15T05:54:35;89.20;;;41.25;;
51594;SDS011;37677;53.254;6.594;2022-11-15T05:57:02;94.15;;;42.00;;
51594;SDS011;37677;53.254;6.594;2022-11-15T05:59:29;87.30;;;41.75;;
51594;SDS011;37677;53.254;6.594;2022-11-15T06:01:56;82.43;;;41.17;;
51594;SDS011;37677;53.254;6.594;2022-11-15T06:04:23;74.63;;;40.22;;
51594;SDS011;37677;53.254;6.594;2022-11-15T06:06:48;86.60;;;43.72;;
51594;SDS011;37677;53.254;6.594;2022-11-15T06:09:14;98.72;;;45.08;;
51594;SDS011;37677;53.254;6.594;2022-11-15T06:11:40;86.22;;;42.33;;
51594;SDS011;37677;53.254;6.594;2022-11-15T06:14:05;91.28;;;42.65;;
51594;SDS011;37677;53.254;6.594;2022-11-15T06:16:31;98.53;;;42.92;;
51594;SDS011;37677;53.254;6.594;2022-11-15T06:18:57;89.55;;;43.83;;
51594;SDS011;37677;53.254;6.594;2022-11-15T06:21:22;87.05;;;44.50;;
51594;SDS011;37677;53.254;6.594;2022-11-15T06:23:49;99.30;;;46.97;;
51594;SDS011;37677;53.254;6.594;2022-11-15T06:26:14;91.70;;;45.55;;
51594;SDS011;37677;53.254;6.594;2022-11-15T06:28:40;99.50;;;46.40;;
51594;SDS011;37677;53.254;6.594;2022-11-15T06:31:07;104.78;;;47.80;;
51594;SDS011;37677;53.254;6.594;2022-11-15T06:33:34;108.57;;;46.92;;
51594;SDS011;37677;53.254;6.594;2022-11-15T06:36:03;91.85;;;45.35;;
51594;SDS011;37677;53.254;6.594;2022-11-15T06:38:30;105.10;;;48.15;;
51594;SDS011;37677;53.254;6.594;2022-11-15T06:41:06;109.78;;;47.35;;
51594;SDS011;37677;53.254;6.594;2022-11-15T06:43:33;109.35;;;49.22;;
51594;SDS011;37677;53.254;6.594;2022-11-15T06:46:00;112.95;;;50.22;;
51594;SDS011;37677;53.254;6.594;2022-11-15T06:48:27;112.75;;;48.60;;
51594;SDS011;37677;53.254;6.594;2022-11-15T06:50:54;101.07;;;49.78;;
51594;SDS011;37677;53.254;6.594;2022-11-15T06:53:21;107.78;;;50.80;;
51594;SDS011;37677;53.254;6.594;2022-11-15T06:55:47;118.38;;;52.53;;
51594;SDS011;37677;53.254;6.594;2022-11-15T06:58:12;111.13;;;51.42;;
51594;SDS011;37677;53.254;6.594;2022-11-15T07:00:38;110.65;;;50.33;;
51594;SDS011;37677;53.254;6.594;2022-11-15T07:03:05;103.78;;;50.70;;
51594;SDS011;37677;53.254;6.594;2022-11-15T07:05:31;102.47;;;50.80;;
51594;SDS011;37677;53.254;6.594;2022-11-15T07:07:57;102.95;;;50.92;;
51594;SDS011;37677;53.254;6.594;2022-11-15T07:10:23;100.47;;;51.53;;
51594;SDS011;37677;53.254;6.594;2022-11-15T07:12:53;108.63;;;52.15;;
51594;SDS011;37677;53.254;6.594;2022-11-15T07:15:20;101.47;;;51.63;;
51594;SDS011;37677;53.254;6.594;2022-11-15T07:17:48;104.93;;;52.58;;
51594;SDS011;37677;53.254;6.594;2022-11-15T07:20:14;104.05;;;54.17;;
51594;SDS011;37677;53.254;6.594;2022-11-15T07:22:40;101.45;;;53.08;;
51594;SDS011;37677;53.254;6.594;2022-11-15T07:25:07;98.05;;;51.80;;
51594;SDS011;37677;53.254;6.594;2022-11-15T07:27:34;105.95;;;52.83;;
51594;SDS011;37677;53.254;6.594;2022-11-15T07:30:00;105.53;;;52.63;;
51594;SDS011;37677;53.254;6.594;2022-11-15T07:32:26;89.82;;;50.40;;
51594;SDS011;37677;53.254;6.594;2022-11-15T07:34:52;99.30;;;51.60;;
51594;SDS011;37677;53.254;6.594;2022-11-15T07:37:18;104.45;;;52.20;;
51594;SDS011;37677;53.254;6.594;2022-11-15T07:39:44;98.43;;;50.70;;
51594;SDS011;37677;53.254;6.594;2022-11-15T07:42:09;99.90;;;50.75;;
51594;SDS011;37677;53.254;6.594;2022-11-15T07:44:54;98.38;;;51.42;;
51594;SDS011;37677;53.254;6.594;2022-11-15T07:47:19;104.05;;;52.25;;
51594;SDS011;37677;53.254;6.594;2022-11-15T07:49:45;107.30;;;54.45;;
51594;SDS011;37677;53.254;6.594;2022-11-15T07:52:12;90.63;;;49.92;;
51594;SDS011;37677;53.254;6.594;2022-11-15T07:54:38;93.78;;;47.83;;
51594;SDS011;37677;53.254;6.594;2022-11-15T07:57:04;97.95;;;50.88;;
51594;SDS011;37677;53.254;6.594;2022-11-15T07:59:32;87.57;;;48.75;;
51594;SDS011;37677;53.254;6.594;2022-11-15T08:01:59;82.95;;;47.78;;
51594;SDS011;37677;53.254;6.594;2022-11-15T08:04:25;84.95;;;46.85;;
51594;SDS011;37677;53.254;6.594;2022-11-15T08:06:52;82.95;;;46.97;;
51594;SDS011;37677;53.254;6.594;2022-11-15T08:09:19;83.35;;;47.65;;
51594;SDS011;37677;53.254;6.594;2022-11-15T08:11:45;78.15;;;46.33;;
51594;SDS011;37677;53.254;6.594;2022-11-15T08:14:10;88.22;;;47.47;;
51594;SDS011;37677;53.254;6.594;2022-11-15T08:16:36;77.50;;;46.13;;
51594;SDS011;37677;53.254;6.594;2022-11-15T08:19:01;76.07;;;45.17;;
51594;SDS011;37677;53.254;6.594;2022-11-15T08:21:27;75.28;;;44.63;;
51594;SDS011;37677;53.254;6.594;2022-11-15T08:23:53;70.30;;;42.97;;
51594;SDS011;37677;53.254;6.594;2022-11-15T08:26:18;69.93;;;43.03;;
51594;SDS011;37677;53.254;6.594;2022-11-15T08:28:44;69.28;;;43.65;;
51594;SDS011;37677;53.254;6.594;2022-11-15T08:31:14;68.22;;;42.00;;
51594;SDS011;37677;53.254;6.594;2022-11-15T08:33:41;63.42;;;41.35;;
51594;SDS011;37677;53.254;6.594;2022-11-15T08:36:10;70.10;;;42.70;;
51594;SDS011;37677;53.254;6.594;2022-11-15T08:38:41;65.55;;;42.00;;
51594;SDS011;37677;53.254;6.594;2022-11-15T08:41:10;61.33;;;39.92;;
51594;SDS011;37677;53.254;6.594;2022-11-15T08:43:40;62.92;;;40.65;;
51594;SDS011;37677;53.254;6.594;2022-11-15T08:46:05;55.35;;;37.47;;
51594;SDS011;37677;53.254;6.594;2022-11-15T08:48:33;55.63;;;38.40;;
51594;SDS011;37677;53.254;6.594;2022-11-15T08:50:59;49.83;;;36.78;;
51594;SDS011;37677;53.254;6.594;2022-11-15T08:53:25;60.50;;;38.28;;
51594;SDS011;37677;53.254;6.594;2022-11-15T08:55:50;59.75;;;37.22;;
51594;SDS011;37677;53.254;6.594;2022-11-15T08:58:16;52.63;;;35.20;;
51594;SDS011;37677;53.254;6.594;2022-11-15T09:00:41;54.25;;;34.92;;
51594;SDS011;37677;53.254;6.594;2022-11-15T09:03:07;53.55;;;35.05;;
51594;SDS011;37677;53.254;6.594;2022-11-15T09:05:35;50.88;;;33.72;;
51594;SDS011;37677;53.254;6.594;2022-11-15T09:08:01;51.35;;;33.40;;
51594;SDS011;37677;53.254;6.594;2022-11-15T09:10:27;46.58;;;32.80;;
51594;SDS011;37677;53.254;6.594;2022-11-15T09:12:52;40.85;;;30.05;;
51594;SDS011;37677;53.254;6.594;2022-11-15T09:15:18;44.70;;;30.65;;
51594;SDS011;37677;53.254;6.594;2022-11-15T09:17:44;41.72;;;28.58;;
51594;SDS011;37677;53.254;6.594;2022-11-15T09:20:10;39.28;;;29.13;;
51594;SDS011;37677;53.254;6.594;2022-11-15T09:22:36;35.25;;;26.27;;
51594;SDS011;37677;53.254;6.594;2022-11-15T09:25:03;36.90;;;27.15;;
51594;SDS011;37677;53.254;6.594;2022-11-15T09:27:30;36.33;;;26.33;;
51594;SDS011;37677;53.254;6.594;2022-11-15T09:29:56;36.28;;;25.30;;
51594;SDS011;37677;53.254;6.594;2022-11-15T09:32:21;34.60;;;25.88;;
51594;SDS011;37677;53.254;6.594;2022-11-15T09:34:48;34.33;;;24.85;;
51594;SDS011;37677;53.254;6.594;2022-11-15T09:37:15;37.10;;;25.65;;
51594;SDS011;37677;53.254;6.594;2022-11-15T09:39:41;29.13;;;24.50;;
51594;SDS011;37677;53.254;6.594;2022-11-15T09:50:50;29.70;;;23.67;;
51594;SDS011;37677;53.254;6.594;2022-11-15T09:56:23;24.58;;;20.77;;
51594;SDS011;37677;53.254;6.594;2022-11-15T10:01:41;26.98;;;21.15;;
51594;SDS011;37677;53.254;6.594;2022-11-15T10:04:33;25.10;;;21.48;;
51594;SDS011;37677;53.254;6.594;2022-11-15T10:09:46;27.17;;;21.17;;
51594;SDS011;37677;53.254;6.594;2022-11-15T10:12:16;25.85;;;20.00;;
51594;SDS011;37677;53.254;6.594;2022-11-15T10:14:42;24.45;;;19.63;;
51594;SDS011;37677;53.254;6.594;2022-11-15T10:17:21;23.10;;;19.17;;
51594;SDS011;37677;53.254;6.594;2022-11-15T10:25:30;29.38;;;19.70;;
51594;SDS011;37677;53.254;6.594;2022-11-15T10:30:46;24.80;;;18.88;;
51594;SDS011;37677;53.254;6.594;2022-11-15T10:35:45;28.33;;;19.20;;
51594;SDS011;37677;53.254;6.594;2022-11-15T10:38:11;23.92;;;18.77;;
51594;SDS011;37677;53.254;6.594;2022-11-15T10:40:38;23.55;;;19.08;;
51594;SDS011;37677;53.254;6.594;2022-11-15T10:45:39;23.27;;;18.55;;
51594;SDS011;37677;53.254;6.594;2022-11-15T10:50:36;24.08;;;16.88;;
51594;SDS011;37677;53.254;6.594;2022-11-15T10:53:03;23.20;;;17.30;;
51594;SDS011;37677;53.254;6.594;2022-11-15T10:55:36;25.08;;;18.85;;
51594;SDS011;37677;53.254;6.594;2022-11-15T10:58:06;23.88;;;17.30;;
51594;SDS011;37677;53.254;6.594;2022-11-15T11:01:45;23.58;;;17.83;;
51594;SDS011;37677;53.254;6.594;2022-11-15T11:06:25;22.58;;;16.90;;
51594;SDS011;37677;53.254;6.594;2022-11-15T11:08:58;23.58;;;17.80;;
51594;SDS011;37677;53.254;6.594;2022-11-15T11:11:43;22.63;;;18.13;;
51594;SDS011;37677;53.254;6.594;2022-11-15T11:14:12;24.52;;;18.48;;
51594;SDS011;37677;53.254;6.594;2022-11-15T11:27:28;22.98;;;20.00;;
51594;SDS011;37677;53.254;6.594;2022-11-15T11:30:20;23.85;;;19.58;;
51594;SDS011;37677;53.254;6.594;2022-11-15T11:40:33;20.42;;;18.35;;
51594;SDS011;37677;53.254;6.594;2022-11-15T11:43:08;22.58;;;18.65;;
51594;SDS011;37677;53.254;6.594;2022-11-15T11:45:44;20.48;;;17.23;;
51594;SDS011;37677;53.254;6.594;2022-11-15T11:51:10;18.25;;;15.63;;
51594;SDS011;37677;53.254;6.594;2022-11-15T11:53:46;18.98;;;16.92;;
51594;SDS011;37677;53.254;6.594;2022-11-15T11:56:27;22.27;;;16.00;;
51594;SDS011;37677;53.254;6.594;2022-11-15T11:58:55;17.95;;;15.98;;
51594;SDS011;37677;53.254;6.594;2022-11-15T12:01:32;16.67;;;14.75;;
51594;SDS011;37677;53.254;6.594;2022-11-15T12:04:05;16.58;;;13.45;;
51594;SDS011;37677;53.254;6.594;2022-11-15T12:09:43;14.75;;;11.43;;
51594;SDS011;37677;53.254;6.594;2022-11-15T12:12:34;12.30;;;10.75;;
51594;SDS011;37677;53.254;6.594;2022-11-15T12:15:10;12.77;;;10.45;;
51594;SDS011;37677;53.254;6.594;2022-11-15T12:17:40;11.20;;;9.63;;
51594;SDS011;37677;53.254;6.594;2022-11-15T12:20:14;13.82;;;10.45;;
51594;SDS011;37677;53.254;6.594;2022-11-15T12:22:45;13.77;;;9.90;;
51594;SDS011;37677;53.254;6.594;2022-11-15T12:25:27;10.82;;;8.15;;
51594;SDS011;37677;53.254;6.594;2022-11-15T12:31:14;9.18;;;7.20;;
51594;SDS011;37677;53.254;6.594;2022-11-15T12:33:45;8.60;;;6.97;;
51594;SDS011;37677;53.254;6.594;2022-11-15T12:41:19;9.32;;;6.47;;
51594;SDS011;37677;53.254;6.594;2022-11-15T12:43:46;9.73;;;6.43;;
51594;SDS011;37677;53.254;6.594;2022-11-15T12:48:58;11.65;;;6.95;;
51594;SDS011;37677;53.254;6.594;2022-11-15T13:02:33;10.23;;;5.68;;
51594;SDS011;37677;53.254;6.594;2022-11-15T13:17:51;9.50;;;5.50;;
51594;SDS011;37677;53.254;6.594;2022-11-15T13:20:31;7.95;;;4.93;;
51594;SDS011;37677;53.254;6.594;2022-11-15T13:28:11;7.85;;;4.65;;
51594;SDS011;37677;53.254;6.594;2022-11-15T13:33:15;7.45;;;4.38;;
51594;SDS011;37677;53.254;6.594;2022-11-15T13:35:56;8.85;;;4.38;;
51594;SDS011;37677;53.254;6.594;2022-11-15T13:40:51;6.25;;;4.47;;
51594;SDS011;37677;53.254;6.594;2022-11-15T13:48:51;6.97;;;3.88;;
51594;SDS011;37677;53.254;6.594;2022-11-15T13:51:27;9.35;;;5.20;;
51594;SDS011;37677;53.254;6.594;2022-11-15T13:56:28;7.82;;;4.35;;
51594;SDS011;37677;53.254;6.594;2022-11-15T13:58:56;10.80;;;4.45;;
51594;SDS011;37677;53.254;6.594;2022-11-15T14:01:22;11.57;;;4.45;;
51594;SDS011;37677;53.254;6.594;2022-11-15T14:03:54;7.55;;;4.05;;
51594;SDS011;37677;53.254;6.594;2022-11-15T14:06:28;7.53;;;4.30;;
51594;SDS011;37677;53.254;6.594;2022-11-15T14:09:00;5.63;;;3.92;;
51594;SDS011;37677;53.254;6.594;2022-11-15T14:11:54;9.55;;;4.75;;
51594;SDS011;37677;53.254;6.594;2022-11-15T14:14:25;6.72;;;4.18;;
51594;SDS011;37677;53.254;6.594;2022-11-15T14:16:59;11.48;;;4.78;;
51594;SDS011;37677;53.254;6.594;2022-11-15T14:24:39;6.97;;;4.70;;
51594;SDS011;37677;53.254;6.594;2022-11-15T14:27:19;9.60;;;4.03;;
51594;SDS011;37677;53.254;6.594;2022-11-15T14:29:47;6.90;;;3.85;;
51594;SDS011;37677;53.254;6.594;2022-11-15T14:32:17;6.00;;;3.72;;
51594;SDS011;37677;53.254;6.594;2022-11-15T14:34:49;5.45;;;3.45;;
51594;SDS011;37677;53.254;6.594;2022-11-15T14:39:52;7.20;;;3.75;;
51594;SDS011;37677;53.254;6.594;2022-11-15T14:42:19;8.93;;;3.72;;
51594;SDS011;37677;53.254;6.594;2022-11-15T14:44:45;7.07;;;3.38;;
51594;SDS011;37677;53.254;6.594;2022-11-15T14:47:12;7.18;;;3.53;;
51594;SDS011;37677;53.254;6.594;2022-11-15T14:49:38;5.18;;;3.20;;
51594;SDS011;37677;53.254;6.594;2022-11-15T14:52:49;6.18;;;3.30;;
51594;SDS011;37677;53.254;6.594;2022-11-15T14:54:54;5.85;;;3.30;;
51594;SDS011;37677;53.254;6.594;2022-11-15T14:57:20;6.10;;;3.35;;
51594;SDS011;37677;53.254;6.594;2022-11-15T14:59:46;6.13;;;3.30;;
51594;SDS011;37677;53.254;6.594;2022-11-15T15:04:46;7.50;;;4.13;;
51594;SDS011;37677;53.254;6.594;2022-11-15T15:07:12;6.28;;;3.38;;
51594;SDS011;37677;53.254;6.594;2022-11-15T15:09:38;11.55;;;3.60;;
51594;SDS011;37677;53.254;6.594;2022-11-15T15:12:04;9.07;;;4.43;;
51594;SDS011;37677;53.254;6.594;2022-11-15T15:14:37;7.72;;;3.25;;
51594;SDS011;37677;53.254;6.594;2022-11-15T15:17:02;15.30;;;6.63;;
51594;SDS011;37677;53.254;6.594;2022-11-15T15:19:29;6.05;;;4.00;;
51594;SDS011;37677;53.254;6.594;2022-11-15T15:21:54;8.35;;;3.78;;
51594;SDS011;37677;53.254;6.594;2022-11-15T15:24:20;7.18;;;3.67;;
51594;SDS011;37677;53.254;6.594;2022-11-15T15:26:45;6.40;;;3.22;;
51594;SDS011;37677;53.254;6.594;2022-11-15T15:29:11;7.10;;;4.00;;
51594;SDS011;37677;53.254;6.594;2022-11-15T15:31:37;6.07;;;3.70;;
51594;SDS011;37677;53.254;6.594;2022-11-15T15:34:02;7.25;;;3.90;;
51594;SDS011;37677;53.254;6.594;2022-11-15T15:36:28;9.48;;;3.95;;
51594;SDS011;37677;53.254;6.594;2022-11-15T15:38:54;7.78;;;3.63;;
51594;SDS011;37677;53.254;6.594;2022-11-15T15:41:19;6.25;;;3.75;;
51594;SDS011;37677;53.254;6.594;2022-11-15T15:43:46;7.25;;;3.35;;
51594;SDS011;37677;53.254;6.594;2022-11-15T15:46:16;7.60;;;3.40;;
51594;SDS011;37677;53.254;6.594;2022-11-15T15:48:43;6.82;;;3.85;;
51594;SDS011;37677;53.254;6.594;2022-11-15T15:51:10;5.30;;;3.92;;
51594;SDS011;37677;53.254;6.594;2022-11-15T15:53:36;7.38;;;4.20;;
51594;SDS011;37677;53.254;6.594;2022-11-15T15:56:02;8.82;;;4.00;;
51594;SDS011;37677;53.254;6.594;2022-11-15T15:58:28;7.50;;;4.18;;
51594;SDS011;37677;53.254;6.594;2022-11-15T16:00:53;5.65;;;4.45;;
51594;SDS011;37677;53.254;6.594;2022-11-15T16:03:19;6.82;;;3.97;;
51594;SDS011;37677;53.254;6.594;2022-11-15T16:05:45;4.88;;;3.97;;
51594;SDS011;37677;53.254;6.594;2022-11-15T16:08:20;4.65;;;4.15;;
51594;SDS011;37677;53.254;6.594;2022-11-15T16:10:48;5.47;;;4.22;;
51594;SDS011;37677;53.254;6.594;2022-11-15T16:13:14;7.65;;;4.35;;
51594;SDS011;37677;53.254;6.594;2022-11-15T16:15:40;7.60;;;4.05;;
51594;SDS011;37677;53.254;6.594;2022-11-15T16:18:17;8.60;;;5.55;;
51594;SDS011;37677;53.254;6.594;2022-11-15T16:20:44;6.75;;;4.50;;
51594;SDS011;37677;53.254;6.594;2022-11-15T16:23:16;8.48;;;4.75;;
51594;SDS011;37677;53.254;6.594;2022-11-15T16:25:51;6.63;;;4.40;;
51594;SDS011;37677;53.254;6.594;2022-11-15T16:30:58;7.22;;;4.38;;
51594;SDS011;37677;53.254;6.594;2022-11-15T16:33:26;11.38;;;5.25;;
51594;SDS011;37677;53.254;6.594;2022-11-15T16:35:52;8.60;;;5.15;;
51594;SDS011;37677;53.254;6.594;2022-11-15T16:38:18;11.73;;;5.50;;
51594;SDS011;37677;53.254;6.594;2022-11-15T16:40:43;6.10;;;5.05;;
51594;SDS011;37677;53.254;6.594;2022-11-15T16:43:09;11.27;;;5.55;;
51594;SDS011;37677;53.254;6.594;2022-11-15T16:45:35;8.77;;;5.20;;
51594;SDS011;37677;53.254;6.594;2022-11-15T16:48:01;7.20;;;4.82;;
51594;SDS011;37677;53.254;6.594;2022-11-15T16:50:28;9.73;;;5.28;;
51594;SDS011;37677;53.254;6.594;2022-11-15T16:52:56;8.95;;;5.18;;
51594;SDS011;37677;53.254;6.594;2022-11-15T16:55:24;8.35;;;5.30;;
51594;SDS011;37677;53.254;6.594;2022-11-15T16:57:53;5.65;;;4.32;;
51594;SDS011;37677;53.254;6.594;2022-11-15T17:00:20;9.43;;;5.30;;
51594;SDS011;37677;53.254;6.594;2022-11-15T17:02:46;9.68;;;4.50;;
51594;SDS011;37677;53.254;6.594;2022-11-15T17:05:14;4.97;;;3.65;;
51594;SDS011;37677;53.254;6.594;2022-11-15T17:07:41;5.88;;;4.10;;
51594;SDS011;37677;53.254;6.594;2022-11-15T17:10:08;6.80;;;4.18;;
51594;SDS011;37677;53.254;6.594;2022-11-15T17:12:36;5.82;;;4.40;;
51594;SDS011;37677;53.254;6.594;2022-11-15T17:15:01;7.00;;;4.03;;
51594;SDS011;37677;53.254;6.594;2022-11-15T17:17:28;6.63;;;3.97;;
51594;SDS011;37677;53.254;6.594;2022-11-15T17:19:55;4.90;;;3.83;;
51594;SDS011;37677;53.254;6.594;2022-11-15T17:22:20;5.78;;;4.18;;
51594;SDS011;37677;53.254;6.594;2022-11-15T17:24:46;6.15;;;4.05;;
51594;SDS011;37677;53.254;6.594;2022-11-15T17:27:12;4.88;;;4.10;;
51594;SDS011;37677;53.254;6.594;2022-11-15T17:29:39;4.80;;;3.80;;
51594;SDS011;37677;53.254;6.594;2022-11-15T17:32:05;6.03;;;4.05;;
51594;SDS011;37677;53.254;6.594;2022-11-15T17:34:31;7.65;;;4.68;;
51594;SDS011;37677;53.254;6.594;2022-11-15T17:36:57;6.47;;;4.10;;
51594;SDS011;37677;53.254;6.594;2022-11-15T17:39:23;8.43;;;4.35;;
51594;SDS011;37677;53.254;6.594;2022-11-15T17:41:49;9.40;;;5.75;;
51594;SDS011;37677;53.254;6.594;2022-11-15T17:44:15;6.72;;;5.20;;
51594;SDS011;37677;53.254;6.594;2022-11-15T17:46:41;7.82;;;5.07;;
51594;SDS011;37677;53.254;6.594;2022-11-15T17:49:07;7.63;;;3.92;;
51594;SDS011;37677;53.254;6.594;2022-11-15T17:51:33;4.60;;;3.92;;
51594;SDS011;37677;53.254;6.594;2022-11-15T17:53:58;6.22;;;3.08;;
51594;SDS011;37677;53.254;6.594;2022-11-15T17:56:25;7.90;;;3.53;;
51594;SDS011;37677;53.254;6.594;2022-11-15T17:58:55;6.35;;;3.13;;
51594;SDS011;37677;53.254;6.594;2022-11-15T18:01:23;8.15;;;3.00;;
51594;SDS011;37677;53.254;6.594;2022-11-15T18:03:51;8.40;;;3.50;;
51594;SDS011;37677;53.254;6.594;2022-11-15T18:06:17;7.93;;;3.40;;
51594;SDS011;37677;53.254;6.594;2022-11-15T18:08:44;5.03;;;3.47;;
51594;SDS011;37677;53.254;6.594;2022-11-15T18:11:12;7.20;;;3.85;;
51594;SDS011;37677;53.254;6.594;2022-11-15T18:13:41;7.75;;;3.17;;
51594;SDS011;37677;53.254;6.594;2022-11-15T18:16:15;3.78;;;2.95;;
51594;SDS011;37677;53.254;6.594;2022-11-15T18:18:43;4.10;;;2.90;;
51594;SDS011;37677;53.254;6.594;2022-11-15T18:21:16;6.20;;;3.40;;
51594;SDS011;37677;53.254;6.594;2022-11-15T18:23:47;5.68;;;2.70;;